Time;durP1;ratioP1;P1;durP2;ratioP2;P2;SDS_P1;SDS_P2;PMS_P1;PMS_P2;Temp;Humidity;BMP_temperature;BMP_pressure;BME280_temperature;BME280_humidity;BME280_pressure;Samples;Min_cycle;Max_cycle;Signal;HPM_P1;HPM_P2
2022/07/14 05:06:35;;;;;;;;;;;14.00;99.90;;;;;;6329600;22;19926;-81
2022/07/14 05:09:01;;;;;;;;;;;14.10;99.90;;;;;;6278831;22;19918;-83
2022/07/14 05:11:27;;;;;;;;;;;14.20;99.90;;;;;;6277684;22;19915;-82
2022/07/14 05:13:53;;;;;;;;;;;14.20;99.90;;;;;;6305691;22;19929;-80
2022/07/14 05:16:19;;;;;;;;;;;14.30;99.90;;;;;;6300518;22;20036;-87
2022/07/14 05:18:46;;;;;;;;;;;14.40;99.90;;;;;;6278389;22;19925;-84
2022/07/14 05:21:12;;;;;;;;;;;14.40;99.90;;;;;;6280629;22;20296;-85
2022/07/14 05:23:38;;;;;;;;;;;14.50;99.90;;;;;;6283902;22;19921;-87
2022/07/14 05:26:12;;;;;;;;;;;14.50;99.90;;;;;;6305345;22;19916;-89
2022/07/14 05:28:38;;;;;;;;;;;14.70;99.90;;;;;;6281493;22;19914;-88
2022/07/14 05:31:07;;;;;;;;;;;14.70;99.90;;;;;;6312631;22;19936;-84
2022/07/14 05:33:33;;;;;;;;;;;14.80;99.90;;;;;;6322475;22;20103;-85
2022/07/14 05:35:59;;;;;;;;;;;14.90;99.90;;;;;;6285868;22;19925;-87
2022/07/14 05:38:27;;;;;;;;;;;14.90;99.90;;;;;;6283652;22;19919;-86
2022/07/14 05:40:53;;;;;;;;;;;15.00;99.90;;;;;;6306399;22;20364;-86
2022/07/14 05:43:28;;;;;;;;;;;15.10;99.90;;;;;;6282878;22;19940;-87
2022/07/14 05:45:53;;;;;;;;;;;15.20;99.90;;;;;;6281736;22;19918;-86
2022/07/14 05:48:20;;;;;;;;;;;15.20;99.90;;;;;;6308791;22;19937;-87
2022/07/14 05:50:49;;;;;;;;;;;15.80;99.90;;;;;;6307179;22;19937;-89
2022/07/14 05:53:15;;;;;;;;;;;15.30;99.90;;;;;;6308060;22;19957;-87
2022/07/14 05:55:45;;;;;;;;;;;14.90;99.90;;;;;;6309092;22;19914;-87
2022/07/14 05:58:13;;;;;;;;;;;15.30;99.90;;;;;;6283851;22;19983;-89
2022/07/14 06:00:47;;;;;;;;;;;15.40;99.90;;;;;;6306714;22;19914;-89
2022/07/14 06:03:13;;;;;;;;;;;15.20;99.90;;;;;;6303096;22;20372;-88
2022/07/14 06:05:39;;;;;;;;;;;15.70;99.90;;;;;;6257589;22;19914;-91
2022/07/14 06:08:25;;;;;;;;;;;15.80;99.90;;;;;;6283655;22;20355;-89
2022/07/14 06:10:50;;;;;;;;;;;16.00;99.90;;;;;;6281615;22;19925;-85
2022/07/14 06:13:19;;;;;;;;;;;16.10;99.90;;;;;;6282934;22;19946;-90
2022/07/14 06:19:01;;;;;;;;;;;17.60;99.90;;;;;;6309374;22;20485;-88
2022/07/14 06:21:28;;;;;;;;;;;19.00;99.90;;;;;;6307626;22;19914;-84
2022/07/14 06:23:55;;;;;;;;;;;19.10;99.90;;;;;;6257564;22;19921;-85
2022/07/14 06:26:22;;;;;;;;;;;19.90;99.90;;;;;;6332863;22;20025;-86
2022/07/14 06:28:48;;;;;;;;;;;19.60;99.90;;;;;;6280619;22;20343;-84
2022/07/14 06:31:34;;;;;;;;;;;19.20;99.90;;;;;;6278832;22;19964;-89
2022/07/14 06:34:02;;;;;;;;;;;18.80;99.90;;;;;;6307919;22;19925;-92
2022/07/14 06:36:28;;;;;;;;;;;18.40;99.90;;;;;;6308841;22;19922;-88
2022/07/14 06:38:54;;;;;;;;;;;18.30;99.90;;;;;;6284967;22;20377;-92
2022/07/14 06:41:46;;;;;;;;;;;18.20;99.90;;;;;;6257732;22;20282;-88
2022/07/14 06:44:13;;;;;;;;;;;18.00;99.90;;;;;;6308853;22;19914;-92
2022/07/14 06:46:39;;;;;;;;;;;18.10;99.90;;;;;;6283884;22;19979;-93
2022/07/14 06:49:05;;;;;;;;;;;18.40;99.90;;;;;;6257727;22;19914;-90
2022/07/14 06:51:31;;;;;;;;;;;18.60;99.90;;;;;;6280542;22;19944;-88
2022/07/14 06:53:58;;;;;;;;;;;19.30;99.90;;;;;;6308457;22;19921;-92
2022/07/14 07:00:07;;;;;;;;;;;21.10;99.90;;;;;;6334418;22;19933;-91
2022/07/14 07:02:36;;;;;;;;;;;22.10;99.90;;;;;;6282643;22;19918;-91
2022/07/14 07:07:50;;;;;;;;;;;23.00;99.90;;;;;;6317959;22;19915;-88
2022/07/14 07:10:16;;;;;;;;;;;23.30;99.90;;;;;;6292757;22;19933;-86
2022/07/14 07:12:42;;;;;;;;;;;23.70;99.30;;;;;;6291374;22;19934;-89
2022/07/14 07:15:09;;;;;;;;;;;23.60;96.50;;;;;;6266745;22;19922;-84
2022/07/14 07:17:35;;;;;;;;;;;23.30;99.90;;;;;;6317732;22;19914;-92
2022/07/14 07:20:01;;;;;;;;;;;23.60;99.50;;;;;;6287022;22;20307;-88
2022/07/14 07:22:46;;;;;;;;;;;23.30;96.60;;;;;;6281751;22;19914;-90
2022/07/14 07:25:33;;;;;;;;;;;22.50;97.40;;;;;;6308037;22;19941;-88
2022/07/14 07:28:02;;;;;;;;;;;21.50;99.70;;;;;;6280851;22;19922;-87
2022/07/14 07:30:28;;;;;;;;;;;20.70;99.90;;;;;;6280717;22;19925;-85
2022/07/14 07:32:55;;;;;;;;;;;20.40;99.90;;;;;;6277570;22;19914;-87
2022/07/14 07:35:21;;;;;;;;;;;21.30;99.90;;;;;;6304613;22;19918;-86
2022/07/14 07:37:46;;;;;;;;;;;21.60;99.90;;;;;;6305520;22;19911;-88
2022/07/14 07:40:13;;;;;;;;;;;22.00;99.90;;;;;;6306716;22;20357;-83
2022/07/14 07:42:39;;;;;;;;;;;22.20;99.90;;;;;;6279714;22;19993;-88
2022/07/14 07:45:05;;;;;;;;;;;22.20;99.90;;;;;;6254902;22;19991;-86
2022/07/14 07:47:33;;;;;;;;;;;22.00;99.90;;;;;;6256818;22;19921;-90
2022/07/14 07:49:59;;;;;;;;;;;21.80;99.90;;;;;;6281149;22;19957;-88
2022/07/14 07:52:25;;;;;;;;;;;21.80;99.90;;;;;;6255211;22;19914;-89
2022/07/14 07:54:51;;;;;;;;;;;21.90;99.90;;;;;;6282565;22;19970;-89
2022/07/14 07:57:18;;;;;;;;;;;21.80;99.90;;;;;;6281317;22;20217;-89
2022/07/14 07:59:46;;;;;;;;;;;21.40;99.90;;;;;;6255135;22;19926;-86
2022/07/14 08:02:31;;;;;;;;;;;21.60;99.90;;;;;;6309510;22;19914;-90
2022/07/14 08:08:02;;;;;;;;;;;22.10;99.90;;;;;;6279684;22;19921;-87
2022/07/14 08:10:28;;;;;;;;;;;22.20;99.90;;;;;;6252711;22;19915;-84
2022/07/14 08:12:54;;;;;;;;;;;22.10;99.90;;;;;;6277510;22;19919;-92
2022/07/14 08:15:48;;;;;;;;;;;22.20;99.90;;;;;;6279509;22;20324;-88
2022/07/14 08:18:15;;;;;;;;;;;22.40;99.90;;;;;;6277121;22;19954;-86
2022/07/14 08:20:41;;;;;;;;;;;22.30;99.10;;;;;;6250349;22;19942;-86
2022/07/14 08:23:09;;;;;;;;;;;21.80;99.90;;;;;;6306711;22;19994;-86
2022/07/14 08:31:44;;;;;;;;;;;21.00;99.90;;;;;;6302919;22;19926;-86
2022/07/14 08:34:11;;;;;;;;;;;21.00;99.90;;;;;;6278722;22;19914;-90
2022/07/14 08:36:37;;;;;;;;;;;20.90;99.90;;;;;;6302090;22;19954;-87
2022/07/14 08:39:08;;;;;;;;;;;20.80;99.90;;;;;;6304900;22;19932;-93
2022/07/14 08:41:34;;;;;;;;;;;20.70;99.90;;;;;;6303572;22;19919;-88
2022/07/14 08:44:00;;;;;;;;;;;20.50;99.90;;;;;;6249323;22;19921;-89
2022/07/14 08:46:33;;;;;;;;;;;20.40;99.90;;;;;;6304328;22;19915;-89
2022/07/14 08:49:00;;;;;;;;;;;20.40;99.90;;;;;;6276893;22;19921;-88
2022/07/14 08:51:26;;;;;;;;;;;20.40;99.90;;;;;;6277126;22;20320;-93
2022/07/14 08:53:52;;;;;;;;;;;20.30;99.90;;;;;;6303602;22;19969;-84
2022/07/14 08:56:19;;;;;;;;;;;20.10;99.90;;;;;;6328720;22;19919;-91
2022/07/14 08:58:46;;;;;;;;;;;19.80;99.90;;;;;;6279032;22;20303;-89
2022/07/14 09:01:12;;;;;;;;;;;19.70;99.90;;;;;;6254475;22;19926;-86
2022/07/14 09:03:43;;;;;;;;;;;19.60;99.90;;;;;;6304041;22;19914;-86
2022/07/14 09:06:09;;;;;;;;;;;19.70;99.90;;;;;;6287257;22;19922;-90
2022/07/14 09:08:55;;;;;;;;;;;19.90;99.90;;;;;;6297554;22;19915;-90
2022/07/14 09:11:22;;;;;;;;;;;20.20;99.90;;;;;;6309449;22;19914;-85
2022/07/14 09:13:49;;;;;;;;;;;20.00;99.90;;;;;;6322837;22;19922;-89
2022/07/14 09:16:21;;;;;;;;;;;19.90;99.90;;;;;;6305851;22;19926;-86
2022/07/14 09:19:07;;;;;;;;;;;19.70;99.90;;;;;;6271143;22;19918;-85
2022/07/14 09:21:37;;;;;;;;;;;19.50;99.90;;;;;;6306565;22;19968;-91
2022/07/14 09:24:06;;;;;;;;;;;19.60;99.90;;;;;;6298511;22;19958;-89
2022/07/14 09:26:43;;;;;;;;;;;19.50;99.90;;;;;;6306524;22;20328;-91
2022/07/14 09:29:20;;;;;;;;;;;19.60;99.90;;;;;;6300848;22;19922;-89
2022/07/14 09:31:47;;;;;;;;;;;19.50;99.90;;;;;;6294638;22;19982;-91
2022/07/14 09:34:31;;;;;;;;;;;19.60;99.90;;;;;;6305423;22;19915;-87
2022/07/14 09:37:11;;;;;;;;;;;19.30;99.90;;;;;;6297656;22;19915;-85
2022/07/14 09:39:49;;;;;;;;;;;19.80;99.90;;;;;;6306579;22;20493;-81
2022/07/14 09:42:18;;;;;;;;;;;20.00;99.90;;;;;;6330627;22;19932;-87
2022/07/14 09:44:44;;;;;;;;;;;20.00;99.90;;;;;;6294506;22;19953;-86
2022/07/14 09:47:11;;;;;;;;;;;20.30;99.90;;;;;;6279491;22;19918;-87
2022/07/14 09:49:37;;;;;;;;;;;20.60;99.90;;;;;;6293217;22;19914;-84
2022/07/14 09:52:06;;;;;;;;;;;20.50;99.90;;;;;;6302336;22;19918;-83
2022/07/14 09:54:49;;;;;;;;;;;20.40;99.90;;;;;;6306139;22;19915;-91
2022/07/14 09:57:35;;;;;;;;;;;20.30;99.90;;;;;;6300927;22;20380;-88
2022/07/14 10:00:10;;;;;;;;;;;20.30;99.90;;;;;;6296972;22;19915;-88
2022/07/14 10:02:42;;;;;;;;;;;20.20;99.90;;;;;;6303676;22;19918;-87
2022/07/14 10:05:09;;;;;;;;;;;20.10;99.90;;;;;;6302745;22;19923;-87
2022/07/14 10:07:47;;;;;;;;;;;20.00;99.90;;;;;;6331196;22;19914;-86
2022/07/14 10:10:15;;;;;;;;;;;19.90;99.90;;;;;;6330901;22;19949;-83
2022/07/14 10:12:41;;;;;;;;;;;19.70;99.90;;;;;;6319891;22;19971;-87
2022/07/14 10:15:09;;;;;;;;;;;19.80;99.90;;;;;;6305306;22;19915;-84
2022/07/14 10:17:35;;;;;;;;;;;19.90;99.90;;;;;;6329539;22;20335;-83
2022/07/14 10:20:03;;;;;;;;;;;20.00;99.90;;;;;;6302173;22;20010;-84
2022/07/14 10:22:29;;;;;;;;;;;19.90;99.90;;;;;;6330015;22;19933;-86
2022/07/14 10:24:56;;;;;;;;;;;19.80;99.90;;;;;;6296608;22;19915;-85
2022/07/14 10:27:22;;;;;;;;;;;19.10;99.90;;;;;;6304678;22;20599;-86
2022/07/14 10:29:52;;;;;;;;;;;19.90;99.90;;;;;;6294885;22;19918;-85
2022/07/14 10:32:40;;;;;;;;;;;19.90;99.90;;;;;;6330104;22;20361;-88
2022/07/14 10:35:41;;;;;;;;;;;20.10;99.90;;;;;;6295679;22;20142;-83
2022/07/14 10:38:25;;;;;;;;;;;20.10;99.90;;;;;;6185741;23;19926;-84
2022/07/14 10:41:17;;;;;;;;;;;20.50;99.90;;;;;;6295826;22;20297;-85
2022/07/14 10:44:01;;;;;;;;;;;20.40;99.90;;;;;;6334567;22;20603;-86
2022/07/14 10:46:49;;;;;;;;;;;20.30;99.90;;;;;;6305038;22;19944;-87
2022/07/14 10:49:16;;;;;;;;;;;19.90;99.90;;;;;;6299208;22;19961;-85
2022/07/14 10:51:43;;;;;;;;;;;19.80;99.90;;;;;;6292133;22;19915;-86
2022/07/14 10:54:10;;;;;;;;;;;19.60;99.90;;;;;;6302922;22;19922;-85
2022/07/14 10:56:37;;;;;;;;;;;19.50;99.90;;;;;;6303963;22;20435;-86
2022/07/14 10:59:23;;;;;;;;;;;19.40;99.90;;;;;;6278234;22;20384;-86
2022/07/14 11:02:08;;;;;;;;;;;19.30;99.90;;;;;;6301436;22;19954;-85
2022/07/14 11:04:53;;;;;;;;;;;19.20;99.90;;;;;;6301888;22;19918;-85
2022/07/14 11:07:38;;;;;;;;;;;19.20;99.90;;;;;;6304348;22;19914;-87
2022/07/14 11:10:07;;;;;;;;;;;19.10;99.90;;;;;;6297867;22;19919;-86
2022/07/14 11:12:34;;;;;;;;;;;18.90;99.90;;;;;;6306997;22;19918;-88
2022/07/14 11:15:00;;;;;;;;;;;19.10;99.90;;;;;;6281074;22;19964;-86
2022/07/14 11:17:29;;;;;;;;;;;19.10;99.90;;;;;;6280443;22;19972;-88
2022/07/14 11:19:55;;;;;;;;;;;19.10;99.90;;;;;;6297645;22;19940;-85
2022/07/14 11:22:21;;;;;;;;;;;19.10;99.90;;;;;;6305154;22;19918;-86
2022/07/14 11:24:53;;;;;;;;;;;19.00;99.90;;;;;;6294027;22;19930;-85
2022/07/14 11:27:26;;;;;;;;;;;19.20;99.90;;;;;;6278311;22;19922;-86
2022/07/14 11:29:53;;;;;;;;;;;19.30;99.90;;;;;;6295010;22;20051;-85
2022/07/14 11:32:45;;;;;;;;;;;19.30;99.90;;;;;;6328542;22;19950;-88
2022/07/14 11:38:20;;;;;;;;;;;19.70;99.90;;;;;;6320586;22;20375;-85
2022/07/14 11:40:50;;;;;;;;;;;19.90;99.90;;;;;;6303671;22;19964;-89
2022/07/14 11:43:29;;;;;;;;;;;20.00;99.90;;;;;;6330362;22;19914;-87
2022/07/14 11:46:03;;;;;;;;;;;20.00;99.90;;;;;;6293731;22;19918;-87
2022/07/14 11:48:35;;;;;;;;;;;20.00;99.90;;;;;;6328872;22;19918;-86
2022/07/14 11:51:07;;;;;;;;;;;20.10;99.90;;;;;;6294872;22;19926;-86
2022/07/14 11:53:33;;;;;;;;;;;20.10;99.90;;;;;;6303526;22;19918;-85
2022/07/14 11:56:00;;;;;;;;;;;20.10;99.90;;;;;;6321120;22;20018;-86
2022/07/14 11:58:27;;;;;;;;;;;20.00;99.90;;;;;;6298599;22;19946;-85
2022/07/14 12:01:02;;;;;;;;;;;19.40;99.90;;;;;;6297368;22;19922;-87
2022/07/14 12:03:28;;;;;;;;;;;19.80;99.90;;;;;;6303419;22;19961;-87
2022/07/14 12:05:55;;;;;;;;;;;19.70;99.90;;;;;;6321022;22;19921;-91
2022/07/14 12:08:30;;;;;;;;;;;19.60;99.90;;;;;;6333215;22;19915;-84
2022/07/14 12:11:22;;;;;;;;;;;19.60;99.90;;;;;;6296644;22;19959;-87
2022/07/14 12:13:49;;;;;;;;;;;19.40;99.90;;;;;;6299411;22;20323;-84
2022/07/14 12:16:17;;;;;;;;;;;19.30;99.90;;;;;;6278211;22;20280;-90
2022/07/14 12:18:50;;;;;;;;;;;19.20;99.90;;;;;;6294257;22;19922;-90
2022/07/14 12:21:16;;;;;;;;;;;19.20;99.90;;;;;;6303294;22;19965;-86
2022/07/14 12:23:52;;;;;;;;;;;19.50;99.90;;;;;;6268545;22;19915;-90
2022/07/14 12:26:19;;;;;;;;;;;19.60;99.90;;;;;;6305145;22;19942;-88
2022/07/14 12:28:53;;;;;;;;;;;19.80;99.90;;;;;;6329007;22;19914;-83
2022/07/14 12:31:19;;;;;;;;;;;20.00;99.90;;;;;;6336026;22;20376;-86
2022/07/14 12:33:46;;;;;;;;;;;;;;;;;;6319830;22;19939;-86
2022/07/14 12:36:16;;;;;;;;;;;20.20;99.90;;;;;;6304137;22;19985;-84
2022/07/14 12:38:42;;;;;;;;;;;20.20;99.90;;;;;;6321260;22;19918;-87
2022/07/14 12:41:09;;;;;;;;;;;20.10;99.90;;;;;;6306868;22;20349;-85
2022/07/14 12:43:38;;;;;;;;;;;20.10;99.90;;;;;;6306296;22;19914;-86
2022/07/14 12:46:14;;;;;;;;;;;20.10;99.90;;;;;;6306064;22;19918;-85
2022/07/14 12:48:51;;;;;;;;;;;20.00;99.90;;;;;;6332167;22;19961;-88
2022/07/14 12:51:39;;;;;;;;;;;19.80;99.90;;;;;;6308117;22;19954;-86
2022/07/14 12:54:24;;;;;;;;;;;19.70;99.90;;;;;;6302382;22;19930;-86
2022/07/14 12:57:10;;;;;;;;;;;19.70;99.90;;;;;;6308534;22;20615;-86
2022/07/14 12:59:36;;;;;;;;;;;19.60;99.90;;;;;;6307392;22;19915;-88
2022/07/14 13:02:04;;;;;;;;;;;19.50;99.90;;;;;;6332028;22;19953;-82
2022/07/14 13:04:34;;;;;;;;;;;19.40;99.90;;;;;;6330164;22;19925;-86
2022/07/14 13:07:01;;;;;;;;;;;19.40;99.90;;;;;;6297362;22;19914;-80
2022/07/14 13:09:27;;;;;;;;;;;19.30;99.90;;;;;;6304830;22;19968;-83
2022/07/14 13:11:55;;;;;;;;;;;19.30;99.90;;;;;;6297693;22;19965;-90
2022/07/14 13:14:21;;;;;;;;;;;19.30;99.90;;;;;;6280227;22;19915;-89
2022/07/14 13:16:49;;;;;;;;;;;19.20;99.90;;;;;;6294900;22;19937;-84
2022/07/14 13:19:24;;;;;;;;;;;19.20;99.90;;;;;;6304807;22;19950;-92
2022/07/14 13:21:52;;;;;;;;;;;19.10;99.90;;;;;;6291776;22;19914;-87
2022/07/14 13:24:27;;;;;;;;;;;19.10;99.90;;;;;;6306722;22;19919;-84
2022/07/14 13:26:58;;;;;;;;;;;19.30;99.90;;;;;;6322842;22;19918;-86
2022/07/14 13:29:25;;;;;;;;;;;19.50;99.90;;;;;;6280845;22;19925;-85
2022/07/14 13:31:51;;;;;;;;;;;19.70;99.90;;;;;;6297347;22;19914;-88
2022/07/14 13:34:17;;;;;;;;;;;19.80;99.90;;;;;;6331268;22;19990;-84
2022/07/14 13:36:47;;;;;;;;;;;19.90;99.90;;;;;;6318751;22;19958;-90
2022/07/14 13:39:16;;;;;;;;;;;19.90;99.90;;;;;;6333835;22;19949;-81
2022/07/14 13:41:42;;;;;;;;;;;19.80;99.90;;;;;;6319793;22;19914;-84
2022/07/14 13:44:09;;;;;;;;;;;19.70;99.90;;;;;;6304502;22;19925;-86
2022/07/14 13:46:36;;;;;;;;;;;19.70;99.90;;;;;;6330756;22;19941;-88
2022/07/14 13:49:02;;;;;;;;;;;19.60;99.90;;;;;;6306584;22;19914;-88
2022/07/14 13:54:13;;;;;;;;;;;19.60;99.90;;;;;;6329104;22;19930;-88
2022/07/14 13:56:40;;;;;;;;;;;19.60;99.90;;;;;;6320926;22;20040;-86
2022/07/14 13:59:12;;;;;;;;;;;19.50;99.90;;;;;;6280886;22;19910;-85
2022/07/14 14:01:39;;;;;;;;;;;19.50;99.90;;;;;;6332168;22;19982;-86
2022/07/14 14:04:05;;;;;;;;;;;19.40;99.90;;;;;;6326911;22;20230;-84
2022/07/14 14:06:31;;;;;;;;;;;19.60;99.90;;;;;;6330793;22;19942;-86
2022/07/14 14:08:58;;;;;;;;;;;19.80;99.90;;;;;;6323437;22;20224;-82
2022/07/14 14:11:24;;;;;;;;;;;20.10;99.90;;;;;;6331119;22;19922;-86
2022/07/14 14:13:50;;;;;;;;;;;19.90;99.90;;;;;;6296176;22;19915;-80
2022/07/14 14:16:15;;;;;;;;;;;20.00;99.90;;;;;;6330516;22;19921;-84
2022/07/14 14:18:41;;;;;;;;;;;20.20;99.90;;;;;;6317590;22;19925;-82
2022/07/14 14:21:07;;;;;;;;;;;19.80;99.90;;;;;;6328789;22;19921;-82
2022/07/14 14:23:34;;;;;;;;;;;20.20;99.90;;;;;;6278420;22;19929;-84
2022/07/14 14:26:01;;;;;;;;;;;20.30;99.90;;;;;;6304980;22;19914;-81
2022/07/14 14:28:27;;;;;;;;;;;20.40;99.90;;;;;;6303553;22;20410;-82
2022/07/14 14:30:56;;;;;;;;;;;20.40;99.90;;;;;;6331679;22;19918;-86
2022/07/14 14:33:25;;;;;;;;;;;20.40;99.90;;;;;;6331107;22;20163;-86
2022/07/14 14:35:54;;;;;;;;;;;20.20;99.90;;;;;;6331617;22;19923;-81
2022/07/14 14:38:20;;;;;;;;;;;20.00;99.90;;;;;;6301455;22;19991;-85
2022/07/14 14:40:51;;;;;;;;;;;19.90;99.90;;;;;;6296572;22;19959;-82
2022/07/14 14:43:17;;;;;;;;;;;19.80;99.90;;;;;;6303369;22;19918;-84
2022/07/14 14:45:44;;;;;;;;;;;19.80;99.90;;;;;;6293049;22;19926;-82
2022/07/14 14:48:12;;;;;;;;;;;19.90;99.90;;;;;;6303206;22;19918;-87
2022/07/14 14:50:38;;;;;;;;;;;20.00;99.90;;;;;;6317009;22;19915;-82
2022/07/14 14:53:06;;;;;;;;;;;20.00;98.80;;;;;;6305003;22;19914;-86
2022/07/14 14:55:35;;;;;;;;;;;20.00;99.90;;;;;;6331549;22;19989;-85
2022/07/14 14:58:01;;;;;;;;;;;20.10;99.90;;;;;;6323419;22;19961;-82
2022/07/14 15:00:27;;;;;;;;;;;20.20;99.90;;;;;;6329588;22;19930;-85
2022/07/14 15:02:52;;;;;;;;;;;20.20;99.90;;;;;;6294275;22;19918;-87
2022/07/14 15:05:18;;;;;;;;;;;20.00;99.90;;;;;;6328477;22;19919;-83
2022/07/14 15:07:44;;;;;;;;;;;19.80;99.90;;;;;;6267635;22;20247;-82
2022/07/14 15:10:11;;;;;;;;;;;19.60;99.90;;;;;;6303856;22;19914;-86
2022/07/14 15:12:37;;;;;;;;;;;19.30;99.90;;;;;;6292130;22;19914;-86
2022/07/14 15:15:04;;;;;;;;;;;19.10;99.90;;;;;;6304379;22;19919;-84
2022/07/14 15:17:29;;;;;;;;;;;18.80;99.90;;;;;;6304984;22;20003;-84
2022/07/14 15:19:55;;;;;;;;;;;18.50;99.90;;;;;;6292965;22;19914;-84
2022/07/14 15:22:22;;;;;;;;;;;18.30;99.90;;;;;;6304929;22;20134;-82
2022/07/14 15:24:53;;;;;;;;;;;18.00;99.90;;;;;;6321143;22;20021;-88
2022/07/14 15:27:20;;;;;;;;;;;17.90;99.90;;;;;;6331044;22;19915;-82
2022/07/14 15:29:49;;;;;;;;;;;17.70;99.90;;;;;;6325195;22;19925;-86
2022/07/14 15:32:16;;;;;;;;;;;17.50;99.90;;;;;;6332706;22;19922;-90
2022/07/14 15:34:43;;;;;;;;;;;17.30;99.90;;;;;;6294188;22;19917;-90
2022/07/14 15:37:11;;;;;;;;;;;17.20;99.90;;;;;;6305617;22;19918;-84
2022/07/14 15:42:23;;;;;;;;;;;17.00;99.90;;;;;;6330786;22;19914;-87
2022/07/14 15:44:49;;;;;;;;;;;16.90;99.90;;;;;;6296396;22;19926;-87
2022/07/14 15:47:14;;;;;;;;;;;16.90;99.90;;;;;;6302766;22;19918;-87
2022/07/14 15:49:42;;;;;;;;;;;16.90;99.90;;;;;;6291104;22;19914;-87
2022/07/14 15:52:09;;;;;;;;;;;16.90;99.90;;;;;;6331719;22;19918;-89
2022/07/14 15:57:44;;;;;;;;;;;17.10;99.90;;;;;;6331773;22;19922;-88
2022/07/14 16:00:11;;;;;;;;;;;17.10;99.90;;;;;;6327720;22;19924;-86
2022/07/14 16:02:38;;;;;;;;;;;17.20;99.90;;;;;;6318253;22;20359;-86
2022/07/14 16:05:05;;;;;;;;;;;17.20;99.90;;;;;;6275991;22;19919;-85
2022/07/14 16:07:30;;;;;;;;;;;17.30;99.90;;;;;;6305193;22;19975;-89
2022/07/14 16:09:56;;;;;;;;;;;17.30;99.90;;;;;;6324735;22;19918;-85
2022/07/14 16:12:22;;;;;;;;;;;17.20;99.90;;;;;;6307446;22;19985;-85
2022/07/14 16:14:48;;;;;;;;;;;17.30;99.90;;;;;;6296078;22;19938;-86
2022/07/14 16:17:15;;;;;;;;;;;17.40;99.90;;;;;;6305845;22;19930;-86
2022/07/14 16:19:41;;;;;;;;;;;17.40;99.90;;;;;;6293939;22;19926;-86
2022/07/14 16:22:07;;;;;;;;;;;17.50;99.90;;;;;;6332731;22;19921;-88
2022/07/14 16:24:32;;;;;;;;;;;17.60;99.90;;;;;;6335071;22;20570;-86
2022/07/14 16:26:58;;;;;;;;;;;17.80;99.90;;;;;;6300497;22;19918;-89
2022/07/14 16:29:25;;;;;;;;;;;17.90;99.90;;;;;;6282489;22;19914;-87
2022/07/14 16:31:51;;;;;;;;;;;18.00;99.90;;;;;;6271741;22;20365;-88
2022/07/14 16:34:17;;;;;;;;;;;18.00;99.90;;;;;;6279257;22;19950;-87
2022/07/14 16:36:46;;;;;;;;;;;18.10;99.90;;;;;;6322933;22;19926;-86
2022/07/14 16:39:13;;;;;;;;;;;17.50;99.90;;;;;;6308351;22;20326;-88
2022/07/14 16:41:42;;;;;;;;;;;18.20;99.90;;;;;;6297869;22;19914;-89
2022/07/14 16:44:08;;;;;;;;;;;18.30;99.90;;;;;;6282286;22;19918;-88
2022/07/14 16:46:35;;;;;;;;;;;18.20;99.90;;;;;;6269429;22;19930;-84
2022/07/14 16:49:01;;;;;;;;;;;18.10;99.90;;;;;;6306062;22;20382;-89
2022/07/14 16:51:27;;;;;;;;;;;18.00;99.90;;;;;;6333257;22;19921;-84
2022/07/14 16:53:55;;;;;;;;;;;17.90;99.90;;;;;;6298296;22;20398;-88
2022/07/14 16:56:40;;;;;;;;;;;17.80;99.90;;;;;;6308660;22;19914;-88
2022/07/14 16:59:07;;;;;;;;;;;18.40;99.90;;;;;;6328183;22;19918;-86
2022/07/14 17:01:33;;;;;;;;;;;17.70;99.90;;;;;;6333196;22;20266;-88
2022/07/14 17:03:59;;;;;;;;;;;17.80;99.90;;;;;;6272402;22;19932;-90
2022/07/14 17:06:29;;;;;;;;;;;18.00;99.90;;;;;;6332279;22;19922;-89
2022/07/14 17:08:55;;;;;;;;;;;18.10;99.90;;;;;;6324627;22;19914;-88
2022/07/14 17:11:23;;;;;;;;;;;18.10;99.90;;;;;;6333847;22;20219;-89
2022/07/14 17:13:50;;;;;;;;;;;18.00;99.90;;;;;;6309075;22;19914;-86
2022/07/14 17:16:16;;;;;;;;;;;17.90;99.90;;;;;;6309272;22;19986;-89
2022/07/14 17:18:42;;;;;;;;;;;17.70;99.90;;;;;;6295061;22;20323;-87
2022/07/14 17:21:09;;;;;;;;;;;18.40;99.90;;;;;;6280002;22;20215;-87
2022/07/14 17:23:35;;;;;;;;;;;17.50;99.90;;;;;;6306957;22;19989;-89
2022/07/14 17:26:01;;;;;;;;;;;17.70;99.90;;;;;;6307054;22;19997;-88
2022/07/14 17:28:28;;;;;;;;;;;17.80;99.90;;;;;;6305443;22;19950;-87
2022/07/14 17:30:54;;;;;;;;;;;17.90;99.90;;;;;;6270805;22;19923;-85
2022/07/14 17:33:20;;;;;;;;;;;17.90;99.90;;;;;;6330750;22;20040;-88
2022/07/14 17:35:46;;;;;;;;;;;17.80;99.90;;;;;;6293921;22;19914;-81
2022/07/14 17:38:12;;;;;;;;;;;17.80;99.90;;;;;;6305564;22;20413;-88
2022/07/14 17:40:38;;;;;;;;;;;17.70;99.90;;;;;;6294482;22;19918;-89
2022/07/14 17:43:05;;;;;;;;;;;17.60;99.90;;;;;;6307516;22;19926;-90
2022/07/14 17:45:34;;;;;;;;;;;17.60;99.90;;;;;;6281150;22;19914;-87
2022/07/14 17:48:02;;;;;;;;;;;17.50;99.90;;;;;;6298497;22;20243;-90
2022/07/14 17:50:28;;;;;;;;;;;17.50;99.90;;;;;;6305850;22;20306;-88
2022/07/14 17:52:55;;;;;;;;;;;17.50;99.90;;;;;;6273603;22;20035;-86
2022/07/14 17:55:21;;;;;;;;;;;17.40;99.90;;;;;;6278619;22;19925;-86
2022/07/14 17:57:47;;;;;;;;;;;17.40;99.90;;;;;;6268330;22;19914;-88
2022/07/14 18:00:13;;;;;;;;;;;17.40;99.90;;;;;;6279404;22;19961;-87
2022/07/14 18:02:39;;;;;;;;;;;17.40;99.90;;;;;;6269632;22;19949;-88
2022/07/14 18:05:05;;;;;;;;;;;17.40;99.90;;;;;;6330419;22;19918;-89
2022/07/14 18:07:31;;;;;;;;;;;17.40;99.90;;;;;;6306678;22;19914;-84
2022/07/14 18:10:00;;;;;;;;;;;17.40;99.90;;;;;;6324815;22;19987;-87
2022/07/14 18:12:27;;;;;;;;;;;17.40;99.90;;;;;;6330958;22;19923;-89
2022/07/14 18:14:54;;;;;;;;;;;17.30;99.90;;;;;;6297968;22;19919;-91
2022/07/14 18:17:20;;;;;;;;;;;17.20;99.90;;;;;;6305977;22;19914;-87
2022/07/14 18:19:45;;;;;;;;;;;17.20;99.90;;;;;;6293919;22;19921;-88
2022/07/14 18:22:12;;;;;;;;;;;17.10;99.90;;;;;;6306022;22;19914;-89
2022/07/14 18:24:38;;;;;;;;;;;17.10;99.90;;;;;;6268338;22;19993;-88
2022/07/14 18:27:04;;;;;;;;;;;17.10;99.90;;;;;;6304147;22;19918;-89
2022/07/14 18:29:31;;;;;;;;;;;17.10;99.90;;;;;;6329922;22;19915;-87
2022/07/14 18:31:57;;;;;;;;;;;16.90;99.90;;;;;;6292320;22;19922;-88
2022/07/14 18:34:23;;;;;;;;;;;16.90;99.90;;;;;;6329121;22;20022;-88
2022/07/14 18:36:49;;;;;;;;;;;16.90;99.90;;;;;;6314135;22;19918;-86
2022/07/14 18:39:18;;;;;;;;;;;16.80;99.90;;;;;;6302829;22;19919;-86
2022/07/14 18:41:44;;;;;;;;;;;16.70;99.90;;;;;;6294173;22;20471;-87
2022/07/14 18:44:10;;;;;;;;;;;16.70;99.90;;;;;;6303003;22;19954;-87
2022/07/14 18:46:36;;;;;;;;;;;16.70;99.90;;;;;;6267606;22;19914;-85
2022/07/14 18:49:03;;;;;;;;;;;16.70;99.90;;;;;;6301969;22;19921;-86
2022/07/14 18:51:29;;;;;;;;;;;16.70;99.90;;;;;;6326370;22;19927;-85
2022/07/14 18:53:57;;;;;;;;;;;16.60;99.90;;;;;;6316428;22;20029;-85
2022/07/14 18:56:24;;;;;;;;;;;16.60;99.90;;;;;;6302740;22;20681;-87
2022/07/14 18:58:50;;;;;;;;;;;16.60;99.90;;;;;;6318051;22;20243;-86
2022/07/14 19:01:18;;;;;;;;;;;16.60;99.90;;;;;;6278384;22;19918;-86
2022/07/14 19:03:44;;;;;;;;;;;16.50;99.90;;;;;;6291802;22;20337;-84
2022/07/14 19:06:10;;;;;;;;;;;16.50;99.90;;;;;;6326937;22;20005;-86
2022/07/14 19:08:36;;;;;;;;;;;16.50;99.90;;;;;;6266505;22;19918;-84
2022/07/14 19:11:03;;;;;;;;;;;16.50;99.90;;;;;;6304243;22;20224;-87
2022/07/14 19:13:31;;;;;;;;;;;16.60;99.90;;;;;;6330327;22;19918;-84
2022/07/14 19:15:57;;;;;;;;;;;16.50;99.90;;;;;;6296202;22;19919;-85
2022/07/14 19:18:24;;;;;;;;;;;16.50;99.90;;;;;;6306349;22;19949;-86
2022/07/14 19:20:52;;;;;;;;;;;17.00;99.90;;;;;;6271823;22;19914;-87
2022/07/14 19:23:18;;;;;;;;;;;16.30;99.90;;;;;;6333685;22;19930;-85
2022/07/14 19:25:44;;;;;;;;;;;16.30;99.90;;;;;;6320616;22;19914;-84
2022/07/14 19:28:13;;;;;;;;;;;16.20;99.90;;;;;;6278399;22;19919;-87
2022/07/14 19:30:39;;;;;;;;;;;16.20;99.90;;;;;;6292155;22;19944;-85
2022/07/14 19:33:05;;;;;;;;;;;16.10;99.90;;;;;;6329062;22;19918;-85
2022/07/14 19:35:31;;;;;;;;;;;16.00;99.90;;;;;;6302795;22;19993;-86
2022/07/14 19:37:57;;;;;;;;;;;15.90;99.90;;;;;;6296031;22;19929;-85
2022/07/14 19:40:23;;;;;;;;;;;15.80;99.90;;;;;;6304218;22;19918;-85
2022/07/14 19:42:50;;;;;;;;;;;15.80;99.90;;;;;;6296607;22;20009;-86
2022/07/14 19:45:16;;;;;;;;;;;15.80;99.90;;;;;;6306176;22;20476;-87
2022/07/14 19:47:43;;;;;;;;;;;15.70;99.90;;;;;;6296536;22;19972;-85
2022/07/14 19:50:09;;;;;;;;;;;15.60;99.90;;;;;;6304270;22;19976;-85
2022/07/14 19:52:35;;;;;;;;;;;15.60;99.90;;;;;;6307783;22;19914;-85
2022/07/14 19:55:01;;;;;;;;;;;14.90;99.90;;;;;;6306491;22;20327;-87
2022/07/14 19:57:27;;;;;;;;;;;15.50;99.90;;;;;;6282209;22;19918;-86
2022/07/14 19:59:58;;;;;;;;;;;15.40;99.90;;;;;;6323522;22;19918;-85
2022/07/14 20:02:25;;;;;;;;;;;15.50;99.90;;;;;;6307902;22;20331;-88
2022/07/14 20:04:51;;;;;;;;;;;15.40;99.90;;;;;;6322253;22;19919;-86